sensor_id;sensor_type;location;lat;lon;timestamp;temperature;humidity
33093;DHT22;19456;46.104;12.908;2023-09-30T00:00:15;16.90;99.90
33093;DHT22;19456;46.104;12.908;2023-09-30T00:02:41;16.90;99.90
33093;DHT22;19456;46.104;12.908;2023-09-30T00:05:06;16.90;99.90
33093;DHT22;19456;46.104;12.908;2023-09-30T00:07:32;17.00;99.90
33093;DHT22;19456;46.104;12.908;2023-09-30T00:10:00;17.00;99.90
33093;DHT22;19456;46.104;12.908;2023-09-30T00:12:26;17.00;99.90
33093;DHT22;19456;46.104;12.908;2023-09-30T00:14:52;17.00;99.90
33093;DHT22;19456;46.104;12.908;2023-09-30T00:17:17;16.90;99.90
33093;DHT22;19456;46.104;12.908;2023-09-30T00:19:43;16.90;99.90
33093;DHT22;19456;46.104;12.908;2023-09-30T00:22:10;16.90;99.90
33093;DHT22;19456;46.104;12.908;2023-09-30T00:24:35;17.00;99.90
33093;DHT22;19456;46.104;12.908;2023-09-30T00:27:01;17.00;99.90
33093;DHT22;19456;46.104;12.908;2023-09-30T00:29:27;17.10;99.90
33093;DHT22;19456;46.104;12.908;2023-09-30T00:31:52;17.10;99.90
33093;DHT22;19456;46.104;12.908;2023-09-30T00:34:18;17.20;99.90
33093;DHT22;19456;46.104;12.908;2023-09-30T00:36:43;17.30;99.90
33093;DHT22;19456;46.104;12.908;2023-09-30T00:39:09;17.40;99.90
33093;DHT22;19456;46.104;12.908;2023-09-30T00:41:35;17.50;99.90
33093;DHT22;19456;46.104;12.908;2023-09-30T00:44:01;17.50;99.90
33093;DHT22;19456;46.104;12.908;2023-09-30T00:48:53;17.50;99.90
33093;DHT22;19456;46.104;12.908;2023-09-30T00:51:19;17.50;99.90
33093;DHT22;19456;46.104;12.908;2023-09-30T00:53:45;17.50;99.90
33093;DHT22;19456;46.104;12.908;2023-09-30T00:56:11;17.50;99.90
33093;DHT22;19456;46.104;12.908;2023-09-30T00:58:37;17.50;99.90
33093;DHT22;19456;46.104;12.908;2023-09-30T01:01:03;17.50;99.90
33093;DHT22;19456;46.104;12.908;2023-09-30T01:03:29;17.50;99.90
33093;DHT22;19456;46.104;12.908;2023-09-30T01:05:55;17.50;99.90
33093;DHT22;19456;46.104;12.908;2023-09-30T01:08:21;17.50;99.90
33093;DHT22;19456;46.104;12.908;2023-09-30T01:10:46;17.50;99.90
33093;DHT22;19456;46.104;12.908;2023-09-30T01:13:12;17.50;99.90
33093;DHT22;19456;46.104;12.908;2023-09-30T01:15:38;17.50;99.90
33093;DHT22;19456;46.104;12.908;2023-09-30T01:18:03;17.60;99.90
33093;DHT22;19456;46.104;12.908;2023-09-30T01:20:29;17.50;99.90
33093;DHT22;19456;46.104;12.908;2023-09-30T01:22:56;17.40;99.90
33093;DHT22;19456;46.104;12.908;2023-09-30T01:25:22;17.40;99.90
33093;DHT22;19456;46.104;12.908;2023-09-30T01:27:48;17.40;99.90
33093;DHT22;19456;46.104;12.908;2023-09-30T01:30:13;17.40;99.90
33093;DHT22;19456;46.104;12.908;2023-09-30T01:32:39;17.40;99.90
33093;DHT22;19456;46.104;12.908;2023-09-30T01:35:05;17.30;99.90
33093;DHT22;19456;46.104;12.908;2023-09-30T01:37:31;17.20;99.90
33093;DHT22;19456;46.104;12.908;2023-09-30T01:39:56;17.30;99.90
33093;DHT22;19456;46.104;12.908;2023-09-30T01:42:22;17.10;99.90
33093;DHT22;19456;46.104;12.908;2023-09-30T01:44:48;17.20;99.90
33093;DHT22;19456;46.104;12.908;2023-09-30T01:47:13;17.20;99.90
33093;DHT22;19456;46.104;12.908;2023-09-30T01:49:39;17.30;99.90
33093;DHT22;19456;46.104;12.908;2023-09-30T01:52:04;17.10;99.90
33093;DHT22;19456;46.104;12.908;2023-09-30T01:54:30;17.00;99.90
33093;DHT22;19456;46.104;12.908;2023-09-30T01:56:55;17.00;99.90
33093;DHT22;19456;46.104;12.908;2023-09-30T01:59:21;17.10;99.90
33093;DHT22;19456;46.104;12.908;2023-09-30T02:01:47;17.00;99.90
33093;DHT22;19456;46.104;12.908;2023-09-30T02:04:14;16.90;99.90
33093;DHT22;19456;46.104;12.908;2023-09-30T02:06:41;16.70;99.90
33093;DHT22;19456;46.104;12.908;2023-09-30T02:09:06;16.60;99.90
33093;DHT22;19456;46.104;12.908;2023-09-30T02:11:37;16.60;99.90
33093;DHT22;19456;46.104;12.908;2023-09-30T02:14:03;16.60;99.90
33093;DHT22;19456;46.104;12.908;2023-09-30T02:16:28;16.50;99.90
33093;DHT22;19456;46.104;12.908;2023-09-30T02:18:55;16.60;99.90
33093;DHT22;19456;46.104;12.908;2023-09-30T02:21:20;16.70;99.90
33093;DHT22;19456;46.104;12.908;2023-09-30T02:23:47;16.70;99.90
33093;DHT22;19456;46.104;12.908;2023-09-30T02:26:16;16.80;99.90
33093;DHT22;19456;46.104;12.908;2023-09-30T02:28:42;16.80;99.90
33093;DHT22;19456;46.104;12.908;2023-09-30T02:31:08;16.80;99.90
33093;DHT22;19456;46.104;12.908;2023-09-30T02:33:34;16.80;99.90
33093;DHT22;19456;46.104;12.908;2023-09-30T02:36:01;16.80;99.90
33093;DHT22;19456;46.104;12.908;2023-09-30T02:38:27;16.70;99.90
33093;DHT22;19456;46.104;12.908;2023-09-30T02:40:53;16.70;99.90
33093;DHT22;19456;46.104;12.908;2023-09-30T02:43:19;16.70;99.90
33093;DHT22;19456;46.104;12.908;2023-09-30T02:45:45;16.60;99.90
33093;DHT22;19456;46.104;12.908;2023-09-30T02:48:11;16.60;99.90
33093;DHT22;19456;46.104;12.908;2023-09-30T02:50:37;16.60;99.90
33093;DHT22;19456;46.104;12.908;2023-09-30T02:53:03;16.60;99.90
33093;DHT22;19456;46.104;12.908;2023-09-30T02:55:29;16.60;99.90
33093;DHT22;19456;46.104;12.908;2023-09-30T02:57:54;16.60;99.90
33093;DHT22;19456;46.104;12.908;2023-09-30T03:00:21;16.70;99.90
33093;DHT22;19456;46.104;12.908;2023-09-30T03:02:50;16.70;99.90
33093;DHT22;19456;46.104;12.908;2023-09-30T03:05:17;16.70;99.90
33093;DHT22;19456;46.104;12.908;2023-09-30T03:07:42;16.80;99.90
33093;DHT22;19456;46.104;12.908;2023-09-30T03:10:08;16.80;99.90
33093;DHT22;19456;46.104;12.908;2023-09-30T03:12:35;16.70;99.90
33093;DHT22;19456;46.104;12.908;2023-09-30T03:15:00;16.60;99.90
33093;DHT22;19456;46.104;12.908;2023-09-30T03:17:30;16.60;99.90
33093;DHT22;19456;46.104;12.908;2023-09-30T03:19:57;16.50;99.90
33093;DHT22;19456;46.104;12.908;2023-09-30T03:22:23;16.50;99.90
33093;DHT22;19456;46.104;12.908;2023-09-30T03:24:48;16.40;99.90
33093;DHT22;19456;46.104;12.908;2023-09-30T03:27:14;16.50;99.90
33093;DHT22;19456;46.104;12.908;2023-09-30T03:29:41;16.40;99.90
33093;DHT22;19456;46.104;12.908;2023-09-30T03:32:06;16.40;99.90
33093;DHT22;19456;46.104;12.908;2023-09-30T03:34:33;16.30;99.90
33093;DHT22;19456;46.104;12.908;2023-09-30T03:37:02;16.10;99.90
33093;DHT22;19456;46.104;12.908;2023-09-30T03:39:27;16.00;99.90
33093;DHT22;19456;46.104;12.908;2023-09-30T03:41:54;16.00;99.90
33093;DHT22;19456;46.104;12.908;2023-09-30T03:44:19;16.00;99.90
33093;DHT22;19456;46.104;12.908;2023-09-30T03:46:45;16.00;99.90
33093;DHT22;19456;46.104;12.908;2023-09-30T03:49:11;16.00;99.90
33093;DHT22;19456;46.104;12.908;2023-09-30T03:51:37;16.00;99.90
33093;DHT22;19456;46.104;12.908;2023-09-30T03:54:02;16.10;99.90
33093;DHT22;19456;46.104;12.908;2023-09-30T03:56:28;16.10;99.90
33093;DHT22;19456;46.104;12.908;2023-09-30T03:58:54;16.20;99.90
33093;DHT22;19456;46.104;12.908;2023-09-30T04:01:19;16.10;99.90
33093;DHT22;19456;46.104;12.908;2023-09-30T04:03:45;16.00;99.90
33093;DHT22;19456;46.104;12.908;2023-09-30T04:06:11;15.90;99.90
33093;DHT22;19456;46.104;12.908;2023-09-30T04:08:37;15.90;99.90
33093;DHT22;19456;46.104;12.908;2023-09-30T04:11:03;15.90;99.90
33093;DHT22;19456;46.104;12.908;2023-09-30T04:13:29;16.10;99.90
33093;DHT22;19456;46.104;12.908;2023-09-30T04:15:55;16.10;99.90
33093;DHT22;19456;46.104;12.908;2023-09-30T04:18:20;16.10;99.90
33093;DHT22;19456;46.104;12.908;2023-09-30T04:20:47;16.10;99.90
33093;DHT22;19456;46.104;12.908;2023-09-30T04:23:13;16.10;99.90
33093;DHT22;19456;46.104;12.908;2023-09-30T04:25:38;16.10;99.90
33093;DHT22;19456;46.104;12.908;2023-09-30T04:28:05;16.10;99.90
33093;DHT22;19456;46.104;12.908;2023-09-30T04:30:31;16.20;99.90
33093;DHT22;19456;46.104;12.908;2023-09-30T04:32:58;16.20;99.90
33093;DHT22;19456;46.104;12.908;2023-09-30T04:35:24;16.30;99.90
33093;DHT22;19456;46.104;12.908;2023-09-30T04:37:50;16.20;99.90
33093;DHT22;19456;46.104;12.908;2023-09-30T04:40:16;16.20;99.90
33093;DHT22;19456;46.104;12.908;2023-09-30T04:42:45;16.10;99.90
33093;DHT22;19456;46.104;12.908;2023-09-30T04:45:14;15.90;99.90
33093;DHT22;19456;46.104;12.908;2023-09-30T04:47:46;16.00;99.90
33093;DHT22;19456;46.104;12.908;2023-09-30T04:50:14;16.10;99.90
33093;DHT22;19456;46.104;12.908;2023-09-30T04:52:41;16.20;99.90
33093;DHT22;19456;46.104;12.908;2023-09-30T04:55:07;16.30;99.90
33093;DHT22;19456;46.104;12.908;2023-09-30T04:57:37;16.30;99.90
33093;DHT22;19456;46.104;12.908;2023-09-30T05:00:03;16.30;99.90
33093;DHT22;19456;46.104;12.908;2023-09-30T05:02:36;16.30;99.90
33093;DHT22;19456;46.104;12.908;2023-09-30T05:05:01;16.30;99.90
33093;DHT22;19456;46.104;12.908;2023-09-30T05:07:28;16.30;99.90
33093;DHT22;19456;46.104;12.908;2023-09-30T05:09:54;16.40;99.90
33093;DHT22;19456;46.104;12.908;2023-09-30T05:12:20;16.50;99.90
33093;DHT22;19456;46.104;12.908;2023-09-30T05:14:45;16.50;99.90
33093;DHT22;19456;46.104;12.908;2023-09-30T05:17:11;16.50;99.90
33093;DHT22;19456;46.104;12.908;2023-09-30T05:19:37;16.50;99.90
33093;DHT22;19456;46.104;12.908;2023-09-30T05:22:03;16.60;99.90
33093;DHT22;19456;46.104;12.908;2023-09-30T05:24:28;16.60;99.90
33093;DHT22;19456;46.104;12.908;2023-09-30T05:26:54;16.70;99.90
33093;DHT22;19456;46.104;12.908;2023-09-30T05:29:20;16.70;99.90
33093;DHT22;19456;46.104;12.908;2023-09-30T05:31:45;16.80;99.90
33093;DHT22;19456;46.104;12.908;2023-09-30T05:34:11;16.80;99.90
33093;DHT22;19456;46.104;12.908;2023-09-30T05:36:37;16.90;99.90
33093;DHT22;19456;46.104;12.908;2023-09-30T05:39:02;17.00;99.90
33093;DHT22;19456;46.104;12.908;2023-09-30T05:41:28;17.00;99.90
33093;DHT22;19456;46.104;12.908;2023-09-30T05:43:55;17.10;99.90
33093;DHT22;19456;46.104;12.908;2023-09-30T05:46:20;17.20;99.90
33093;DHT22;19456;46.104;12.908;2023-09-30T05:48:46;17.20;99.90
33093;DHT22;19456;46.104;12.908;2023-09-30T05:51:12;17.30;99.90
33093;DHT22;19456;46.104;12.908;2023-09-30T05:53:40;17.20;99.90
33093;DHT22;19456;46.104;12.908;2023-09-30T05:56:06;17.20;99.90
33093;DHT22;19456;46.104;12.908;2023-09-30T05:58:32;17.30;99.90
33093;DHT22;19456;46.104;12.908;2023-09-30T06:00:58;17.30;99.90
33093;DHT22;19456;46.104;12.908;2023-09-30T06:03:28;17.30;99.90
33093;DHT22;19456;46.104;12.908;2023-09-30T06:06:20;17.30;99.90
33093;DHT22;19456;46.104;12.908;2023-09-30T06:08:45;17.40;99.90
33093;DHT22;19456;46.104;12.908;2023-09-30T06:11:18;17.40;99.90
33093;DHT22;19456;46.104;12.908;2023-09-30T06:13:46;17.40;99.90
33093;DHT22;19456;46.104;12.908;2023-09-30T06:16:12;17.40;99.90
33093;DHT22;19456;46.104;12.908;2023-09-30T06:18:38;17.40;99.90
33093;DHT22;19456;46.104;12.908;2023-09-30T06:21:03;17.40;99.90
33093;DHT22;19456;46.104;12.908;2023-09-30T06:23:30;17.50;99.90
33093;DHT22;19456;46.104;12.908;2023-09-30T06:25:57;17.60;99.90
33093;DHT22;19456;46.104;12.908;2023-09-30T06:28:22;17.70;99.90
33093;DHT22;19456;46.104;12.908;2023-09-30T06:30:51;17.80;99.90
33093;DHT22;19456;46.104;12.908;2023-09-30T06:33:17;17.90;99.90
33093;DHT22;19456;46.104;12.908;2023-09-30T06:35:42;17.90;99.90
33093;DHT22;19456;46.104;12.908;2023-09-30T06:38:18;17.90;99.90
33093;DHT22;19456;46.104;12.908;2023-09-30T06:40:44;18.00;99.90
33093;DHT22;19456;46.104;12.908;2023-09-30T06:43:15;18.00;99.90
33093;DHT22;19456;46.104;12.908;2023-09-30T06:45:42;18.00;99.90
33093;DHT22;19456;46.104;12.908;2023-09-30T06:48:08;18.00;99.90
33093;DHT22;19456;46.104;12.908;2023-09-30T06:50:44;18.10;99.90
33093;DHT22;19456;46.104;12.908;2023-09-30T06:53:11;18.20;99.90
33093;DHT22;19456;46.104;12.908;2023-09-30T06:55:38;18.20;99.90
33093;DHT22;19456;46.104;12.908;2023-09-30T06:58:03;18.30;99.90
33093;DHT22;19456;46.104;12.908;2023-09-30T07:00:32;18.40;99.90
33093;DHT22;19456;46.104;12.908;2023-09-30T07:02:58;18.40;99.90
33093;DHT22;19456;46.104;12.908;2023-09-30T07:05:24;18.50;99.90
33093;DHT22;19456;46.104;12.908;2023-09-30T07:07:59;18.50;99.90
33093;DHT22;19456;46.104;12.908;2023-09-30T07:10:28;18.60;99.90
33093;DHT22;19456;46.104;12.908;2023-09-30T07:12:57;18.80;99.90
33093;DHT22;19456;46.104;12.908;2023-09-30T07:15:22;18.90;99.90
33093;DHT22;19456;46.104;12.908;2023-09-30T07:17:48;19.10;99.90
33093;DHT22;19456;46.104;12.908;2023-09-30T07:20:14;19.30;99.90
33093;DHT22;19456;46.104;12.908;2023-09-30T07:22:40;19.40;99.90
33093;DHT22;19456;46.104;12.908;2023-09-30T07:25:06;19.50;99.90
33093;DHT22;19456;46.104;12.908;2023-09-30T07:27:31;19.60;99.90
33093;DHT22;19456;46.104;12.908;2023-09-30T07:29:57;19.80;99.90
33093;DHT22;19456;46.104;12.908;2023-09-30T07:32:22;19.80;99.90
33093;DHT22;19456;46.104;12.908;2023-09-30T07:34:49;20.00;99.90
33093;DHT22;19456;46.104;12.908;2023-09-30T07:37:14;20.10;99.90
33093;DHT22;19456;46.104;12.908;2023-09-30T07:39:40;20.20;99.90
33093;DHT22;19456;46.104;12.908;2023-09-30T07:42:08;20.40;99.90
33093;DHT22;19456;46.104;12.908;2023-09-30T07:44:34;20.50;99.90
33093;DHT22;19456;46.104;12.908;2023-09-30T07:47:01;20.70;99.90
33093;DHT22;19456;46.104;12.908;2023-09-30T07:49:29;20.80;99.90
33093;DHT22;19456;46.104;12.908;2023-09-30T07:51:54;20.90;99.90
33093;DHT22;19456;46.104;12.908;2023-09-30T07:54:20;21.00;99.90
33093;DHT22;19456;46.104;12.908;2023-09-30T07:56:45;21.10;99.90
33093;DHT22;19456;46.104;12.908;2023-09-30T07:59:11;21.10;99.90
33093;DHT22;19456;46.104;12.908;2023-09-30T08:01:37;21.20;99.90
33093;DHT22;19456;46.104;12.908;2023-09-30T08:04:03;21.30;99.90
33093;DHT22;19456;46.104;12.908;2023-09-30T08:06:28;21.40;99.90
33093;DHT22;19456;46.104;12.908;2023-09-30T08:08:54;21.60;99.90
33093;DHT22;19456;46.104;12.908;2023-09-30T08:11:20;21.70;99.90
33093;DHT22;19456;46.104;12.908;2023-09-30T08:13:46;21.80;99.90
33093;DHT22;19456;46.104;12.908;2023-09-30T08:16:12;22.00;99.90
33093;DHT22;19456;46.104;12.908;2023-09-30T08:18:38;22.10;99.90
33093;DHT22;19456;46.104;12.908;2023-09-30T08:21:04;22.10;99.90
33093;DHT22;19456;46.104;12.908;2023-09-30T08:23:30;22.30;99.90
33093;DHT22;19456;46.104;12.908;2023-09-30T08:25:58;22.40;99.90
33093;DHT22;19456;46.104;12.908;2023-09-30T08:28:23;22.50;99.90
33093;DHT22;19456;46.104;12.908;2023-09-30T08:30:49;22.60;99.90
33093;DHT22;19456;46.104;12.908;2023-09-30T08:33:16;22.70;99.90
33093;DHT22;19456;46.104;12.908;2023-09-30T08:35:41;22.80;99.90
33093;DHT22;19456;46.104;12.908;2023-09-30T08:38:07;22.90;99.90
33093;DHT22;19456;46.104;12.908;2023-09-30T08:40:32;23.00;99.90
33093;DHT22;19456;46.104;12.908;2023-09-30T08:42:58;23.10;99.90
33093;DHT22;19456;46.104;12.908;2023-09-30T08:45:24;23.20;99.90
33093;DHT22;19456;46.104;12.908;2023-09-30T08:47:53;23.30;99.90
33093;DHT22;19456;46.104;12.908;2023-09-30T08:50:19;23.40;99.90
33093;DHT22;19456;46.104;12.908;2023-09-30T08:52:47;23.40;99.90
33093;DHT22;19456;46.104;12.908;2023-09-30T08:55:18;23.50;99.90
33093;DHT22;19456;46.104;12.908;2023-09-30T08:57:45;23.60;99.90
33093;DHT22;19456;46.104;12.908;2023-09-30T09:00:12;23.70;99.90
33093;DHT22;19456;46.104;12.908;2023-09-30T09:02:41;23.80;99.90
33093;DHT22;19456;46.104;12.908;2023-09-30T09:05:07;24.00;99.90
33093;DHT22;19456;46.104;12.908;2023-09-30T09:07:34;24.00;99.90
33093;DHT22;19456;46.104;12.908;2023-09-30T09:10:09;24.20;99.90
33093;DHT22;19456;46.104;12.908;2023-09-30T09:12:38;24.30;99.90
33093;DHT22;19456;46.104;12.908;2023-09-30T09:15:08;24.30;99.90
33093;DHT22;19456;46.104;12.908;2023-09-30T09:17:40;24.40;99.90
33093;DHT22;19456;46.104;12.908;2023-09-30T09:20:07;24.50;99.90
33093;DHT22;19456;46.104;12.908;2023-09-30T09:22:38;24.60;99.90
33093;DHT22;19456;46.104;12.908;2023-09-30T09:25:04;24.50;99.90
33093;DHT22;19456;46.104;12.908;2023-09-30T09:27:32;24.50;99.90
33093;DHT22;19456;46.104;12.908;2023-09-30T09:30:00;24.60;99.90
33093;DHT22;19456;46.104;12.908;2023-09-30T09:32:39;24.60;99.90
33093;DHT22;19456;46.104;12.908;2023-09-30T09:35:04;24.70;99.90
33093;DHT22;19456;46.104;12.908;2023-09-30T09:37:31;24.80;99.90
33093;DHT22;19456;46.104;12.908;2023-09-30T09:39:57;24.80;99.90
33093;DHT22;19456;46.104;12.908;2023-09-30T09:42:30;25.00;99.90
33093;DHT22;19456;46.104;12.908;2023-09-30T09:45:03;25.00;99.90
33093;DHT22;19456;46.104;12.908;2023-09-30T09:47:29;25.10;99.90
33093;DHT22;19456;46.104;12.908;2023-09-30T09:49:54;25.20;99.90
33093;DHT22;19456;46.104;12.908;2023-09-30T09:52:25;25.30;99.90
33093;DHT22;19456;46.104;12.908;2023-09-30T09:54:52;25.40;99.90
33093;DHT22;19456;46.104;12.908;2023-09-30T09:57:18;25.40;99.90
33093;DHT22;19456;46.104;12.908;2023-09-30T09:59:44;25.40;99.90
33093;DHT22;19456;46.104;12.908;2023-09-30T10:02:14;25.50;99.90
33093;DHT22;19456;46.104;12.908;2023-09-30T10:04:40;25.60;99.90
33093;DHT22;19456;46.104;12.908;2023-09-30T10:07:07;25.80;99.90
33093;DHT22;19456;46.104;12.908;2023-09-30T10:09:34;25.90;99.90
33093;DHT22;19456;46.104;12.908;2023-09-30T10:12:00;26.00;99.90
33093;DHT22;19456;46.104;12.908;2023-09-30T10:14:32;26.10;99.90
33093;DHT22;19456;46.104;12.908;2023-09-30T10:16:58;26.30;99.90
33093;DHT22;19456;46.104;12.908;2023-09-30T10:19:24;26.30;99.90
33093;DHT22;19456;46.104;12.908;2023-09-30T10:24:34;26.40;99.90
33093;DHT22;19456;46.104;12.908;2023-09-30T10:29:46;26.60;99.90
33093;DHT22;19456;46.104;12.908;2023-09-30T10:32:11;26.70;99.90
33093;DHT22;19456;46.104;12.908;2023-09-30T10:34:37;26.80;99.90
33093;DHT22;19456;46.104;12.908;2023-09-30T10:37:24;26.80;99.90
33093;DHT22;19456;46.104;12.908;2023-09-30T10:39:59;27.00;99.90
33093;DHT22;19456;46.104;12.908;2023-09-30T10:42:45;27.10;99.90
33093;DHT22;19456;46.104;12.908;2023-09-30T10:47:55;27.40;99.90
33093;DHT22;19456;46.104;12.908;2023-09-30T10:53:05;27.80;99.90
33093;DHT22;19456;46.104;12.908;2023-09-30T10:55:32;28.00;99.20
33093;DHT22;19456;46.104;12.908;2023-09-30T10:57:58;28.30;98.50
33093;DHT22;19456;46.104;12.908;2023-09-30T11:00:24;28.60;98.10
33093;DHT22;19456;46.104;12.908;2023-09-30T11:02:50;29.00;97.30
33093;DHT22;19456;46.104;12.908;2023-09-30T11:05:17;29.20;97.00
33093;DHT22;19456;46.104;12.908;2023-09-30T11:07:43;29.20;96.60
33093;DHT22;19456;46.104;12.908;2023-09-30T11:10:09;29.20;96.00
33093;DHT22;19456;46.104;12.908;2023-09-30T11:12:37;29.40;95.60
33093;DHT22;19456;46.104;12.908;2023-09-30T11:15:02;29.70;95.10
33093;DHT22;19456;46.104;12.908;2023-09-30T11:17:28;30.30;95.00
33093;DHT22;19456;46.104;12.908;2023-09-30T11:19:54;30.70;93.70
33093;DHT22;19456;46.104;12.908;2023-09-30T11:22:20;31.10;92.90
33093;DHT22;19456;46.104;12.908;2023-09-30T11:24:45;30.70;92.90
33093;DHT22;19456;46.104;12.908;2023-09-30T11:27:11;31.10;91.90
33093;DHT22;19456;46.104;12.908;2023-09-30T11:29:37;31.80;91.30
33093;DHT22;19456;46.104;12.908;2023-09-30T11:32:02;32.20;90.50
33093;DHT22;19456;46.104;12.908;2023-09-30T11:34:35;32.50;89.20
33093;DHT22;19456;46.104;12.908;2023-09-30T11:37:01;32.40;88.20
33093;DHT22;19456;46.104;12.908;2023-09-30T11:39:28;32.40;87.50
33093;DHT22;19456;46.104;12.908;2023-09-30T11:41:53;32.90;85.50
33093;DHT22;19456;46.104;12.908;2023-09-30T11:44:22;32.80;83.90
33093;DHT22;19456;46.104;12.908;2023-09-30T11:49:25;33.40;82.20
33093;DHT22;19456;46.104;12.908;2023-09-30T11:51:51;33.30;80.40
33093;DHT22;19456;46.104;12.908;2023-09-30T11:54:16;32.90;80.90
33093;DHT22;19456;46.104;12.908;2023-09-30T11:56:42;32.80;80.20
33093;DHT22;19456;46.104;12.908;2023-09-30T11:59:08;32.50;80.50
33093;DHT22;19456;46.104;12.908;2023-09-30T12:01:39;32.50;80.40
33093;DHT22;19456;46.104;12.908;2023-09-30T12:04:04;32.90;79.70
33093;DHT22;19456;46.104;12.908;2023-09-30T12:06:30;32.30;79.40
33093;DHT22;19456;46.104;12.908;2023-09-30T12:08:56;32.70;80.60
33093;DHT22;19456;46.104;12.908;2023-09-30T12:11:22;33.00;78.70
33093;DHT22;19456;46.104;12.908;2023-09-30T12:13:49;33.10;77.80
33093;DHT22;19456;46.104;12.908;2023-09-30T12:16:18;33.20;77.90
33093;DHT22;19456;46.104;12.908;2023-09-30T12:18:44;33.50;77.10
33093;DHT22;19456;46.104;12.908;2023-09-30T12:21:10;33.30;76.10
33093;DHT22;19456;46.104;12.908;2023-09-30T12:23:36;33.60;75.80
33093;DHT22;19456;46.104;12.908;2023-09-30T12:26:02;33.80;75.20
33093;DHT22;19456;46.104;12.908;2023-09-30T12:28:31;33.50;75.40
33093;DHT22;19456;46.104;12.908;2023-09-30T12:30:57;33.50;75.60
33093;DHT22;19456;46.104;12.908;2023-09-30T12:33:23;33.50;74.60
33093;DHT22;19456;46.104;12.908;2023-09-30T12:35:48;33.90;75.20
33093;DHT22;19456;46.104;12.908;2023-09-30T12:38:14;33.70;74.40
33093;DHT22;19456;46.104;12.908;2023-09-30T12:40:41;34.30;73.50
33093;DHT22;19456;46.104;12.908;2023-09-30T12:43:09;34.10;73.20
33093;DHT22;19456;46.104;12.908;2023-09-30T12:45:35;34.50;72.50
33093;DHT22;19456;46.104;12.908;2023-09-30T12:48:02;34.50;71.30
33093;DHT22;19456;46.104;12.908;2023-09-30T12:50:28;34.10;71.40
33093;DHT22;19456;46.104;12.908;2023-09-30T12:52:53;34.40;70.90
33093;DHT22;19456;46.104;12.908;2023-09-30T12:55:19;35.30;70.00
33093;DHT22;19456;46.104;12.908;2023-09-30T12:57:44;35.80;66.30
33093;DHT22;19456;46.104;12.908;2023-09-30T13:00:10;35.50;66.00
33093;DHT22;19456;46.104;12.908;2023-09-30T13:02:36;35.60;66.00
33093;DHT22;19456;46.104;12.908;2023-09-30T13:05:01;35.70;65.70
33093;DHT22;19456;46.104;12.908;2023-09-30T13:07:27;35.30;65.70
33093;DHT22;19456;46.104;12.908;2023-09-30T13:09:53;35.40;65.70
33093;DHT22;19456;46.104;12.908;2023-09-30T13:12:19;35.30;65.00
33093;DHT22;19456;46.104;12.908;2023-09-30T13:14:44;35.10;65.40
33093;DHT22;19456;46.104;12.908;2023-09-30T13:17:10;34.60;66.00
33093;DHT22;19456;46.104;12.908;2023-09-30T13:19:39;34.10;66.90
33093;DHT22;19456;46.104;12.908;2023-09-30T13:22:05;33.20;69.10
33093;DHT22;19456;46.104;12.908;2023-09-30T13:24:30;32.30;71.00
33093;DHT22;19456;46.104;12.908;2023-09-30T13:26:56;32.10;71.80
33093;DHT22;19456;46.104;12.908;2023-09-30T13:29:22;32.10;71.70
33093;DHT22;19456;46.104;12.908;2023-09-30T13:31:47;32.00;71.60
33093;DHT22;19456;46.104;12.908;2023-09-30T13:34:13;32.00;72.00
33093;DHT22;19456;46.104;12.908;2023-09-30T13:36:39;31.80;72.30
33093;DHT22;19456;46.104;12.908;2023-09-30T13:39:05;31.60;72.70
33093;DHT22;19456;46.104;12.908;2023-09-30T13:41:33;31.70;72.60
33093;DHT22;19456;46.104;12.908;2023-09-30T13:43:59;32.60;71.40
33093;DHT22;19456;46.104;12.908;2023-09-30T13:46:25;33.20;70.30
33093;DHT22;19456;46.104;12.908;2023-09-30T13:48:53;34.00;69.00
33093;DHT22;19456;46.104;12.908;2023-09-30T13:51:19;34.50;68.40
33093;DHT22;19456;46.104;12.908;2023-09-30T13:53:44;35.80;66.40
33093;DHT22;19456;46.104;12.908;2023-09-30T13:56:10;36.50;64.10
33093;DHT22;19456;46.104;12.908;2023-09-30T13:58:36;37.00;62.90
33093;DHT22;19456;46.104;12.908;2023-09-30T14:01:02;38.10;60.50
33093;DHT22;19456;46.104;12.908;2023-09-30T14:03:28;37.80;59.80
33093;DHT22;19456;46.104;12.908;2023-09-30T14:05:54;38.30;59.50
33093;DHT22;19456;46.104;12.908;2023-09-30T14:08:19;38.30;58.70
33093;DHT22;19456;46.104;12.908;2023-09-30T14:10:45;37.80;59.20
33093;DHT22;19456;46.104;12.908;2023-09-30T14:13:10;37.70;59.40
33093;DHT22;19456;46.104;12.908;2023-09-30T14:15:36;38.00;58.60
33093;DHT22;19456;46.104;12.908;2023-09-30T14:18:03;38.20;58.00
33093;DHT22;19456;46.104;12.908;2023-09-30T14:20:28;38.00;57.00
33093;DHT22;19456;46.104;12.908;2023-09-30T14:22:54;38.00;57.20
33093;DHT22;19456;46.104;12.908;2023-09-30T14:25:22;37.90;57.80
33093;DHT22;19456;46.104;12.908;2023-09-30T14:27:48;38.50;56.50
33093;DHT22;19456;46.104;12.908;2023-09-30T14:30:14;37.60;55.90
33093;DHT22;19456;46.104;12.908;2023-09-30T14:32:40;37.10;55.60
33093;DHT22;19456;46.104;12.908;2023-09-30T14:35:06;36.90;56.20
33093;DHT22;19456;46.104;12.908;2023-09-30T14:37:31;36.30;56.40
33093;DHT22;19456;46.104;12.908;2023-09-30T14:39:57;36.30;56.40
33093;DHT22;19456;46.104;12.908;2023-09-30T14:42:23;36.20;56.90
33093;DHT22;19456;46.104;12.908;2023-09-30T14:44:48;35.60;57.10
33093;DHT22;19456;46.104;12.908;2023-09-30T14:47:14;35.60;57.90
33093;DHT22;19456;46.104;12.908;2023-09-30T14:49:40;35.80;57.80
33093;DHT22;19456;46.104;12.908;2023-09-30T14:52:06;36.30;57.80
33093;DHT22;19456;46.104;12.908;2023-09-30T14:54:31;36.50;57.20
33093;DHT22;19456;46.104;12.908;2023-09-30T14:56:58;36.60;56.50
33093;DHT22;19456;46.104;12.908;2023-09-30T14:59:24;36.30;55.90
33093;DHT22;19456;46.104;12.908;2023-09-30T15:01:49;36.40;56.20
33093;DHT22;19456;46.104;12.908;2023-09-30T15:04:15;36.50;55.40
33093;DHT22;19456;46.104;12.908;2023-09-30T15:06:41;36.20;55.40
33093;DHT22;19456;46.104;12.908;2023-09-30T15:09:07;36.10;55.10
33093;DHT22;19456;46.104;12.908;2023-09-30T15:11:35;35.20;55.80
33093;DHT22;19456;46.104;12.908;2023-09-30T15:14:00;34.80;56.80
33093;DHT22;19456;46.104;12.908;2023-09-30T15:16:26;35.10;57.30
33093;DHT22;19456;46.104;12.908;2023-09-30T15:18:51;35.00;57.00
33093;DHT22;19456;46.104;12.908;2023-09-30T15:21:17;34.90;57.10
33093;DHT22;19456;46.104;12.908;2023-09-30T15:23:43;34.80;57.30
33093;DHT22;19456;46.104;12.908;2023-09-30T15:26:08;34.10;58.20